sensor_id;sensor_type;location;lat;lon;timestamp;pressure;altitude;pressure_sealevel;temperature;humidity
44734;BME280;30462;52.446;-1.930;2024-02-21T00:00:14;100364.7422;;;;
44734;BME280;30462;52.446;-1.930;2024-02-21T00:01:15;100361.1992;;;;
44734;BME280;30462;52.446;-1.930;2024-02-21T00:02:14;100356.8594;;;;
44734;BME280;30462;52.446;-1.930;2024-02-21T00:03:13;100353.7891;;;;
44734;BME280;30462;52.446;-1.930;2024-02-21T00:04:13;100351.207;;;;
44734;BME280;30462;52.446;-1.930;2024-02-21T00:05:14;100346.3242;;;;
44734;BME280;30462;52.446;-1.930;2024-02-21T00:06:14;100341.7578;;;;
44734;BME280;30462;52.446;-1.930;2024-02-21T00:07:14;100339.3594;;;;
44734;BME280;30462;52.446;-1.930;2024-02-21T00:08:14;100334.9688;;;;
44734;BME280;30462;52.446;-1.930;2024-02-21T00:09:13;100332.2969;;;;
44734;BME280;30462;52.446;-1.930;2024-02-21T00:10:14;100334.1055;;;;
44734;BME280;30462;52.446;-1.930;2024-02-21T00:11:14;100336.0352;;;;
44734;BME280;30462;52.446;-1.930;2024-02-21T00:12:14;100336.8906;;;;
44734;BME280;30462;52.446;-1.930;2024-02-21T00:13:14;100330.9336;;;;
44734;BME280;30462;52.446;-1.930;2024-02-21T00:14:14;100326.2891;;;;
44734;BME280;30462;52.446;-1.930;2024-02-21T00:15:13;100322.8438;;;;
44734;BME280;30462;52.446;-1.930;2024-02-21T00:16:14;100323.9375;;;;
44734;BME280;30462;52.446;-1.930;2024-02-21T00:17:14;100321.9609;;;;
44734;BME280;30462;52.446;-1.930;2024-02-21T00:18:14;100317.707;;;;
44734;BME280;30462;52.446;-1.930;2024-02-21T00:19:14;100315.2383;;;;
44734;BME280;30462;52.446;-1.930;2024-02-21T00:20:14;100312.7344;;;;
44734;BME280;30462;52.446;-1.930;2024-02-21T00:21:14;100310.9883;;;;
44734;BME280;30462;52.446;-1.930;2024-02-21T00:22:14;100312.9922;;;;
44734;BME280;30462;52.446;-1.930;2024-02-21T00:23:13;100311.4063;;;;
44734;BME280;30462;52.446;-1.930;2024-02-21T00:24:14;100307.9648;;;;
44734;BME280;30462;52.446;-1.930;2024-02-21T00:25:14;100314.4766;;;;
44734;BME280;30462;52.446;-1.930;2024-02-21T00:26:14;100314.9297;;;;
44734;BME280;30462;52.446;-1.930;2024-02-21T00:27:14;100313.7031;;;;
44734;BME280;30462;52.446;-1.930;2024-02-21T00:28:14;100315.6367;;;;
44734;BME280;30462;52.446;-1.930;2024-02-21T00:29:14;100314.8984;;;;
44734;BME280;30462;52.446;-1.930;2024-02-21T00:30:14;100316.7813;;;;
44734;BME280;30462;52.446;-1.930;2024-02-21T00:31:14;100312.4844;;;;
44734;BME280;30462;52.446;-1.930;2024-02-21T00:32:14;100311.125;;;;
44734;BME280;30462;52.446;-1.930;2024-02-21T00:33:14;100306.9023;;;;
44734;BME280;30462;52.446;-1.930;2024-02-21T00:34:13;100309.707;;;;
44734;BME280;30462;52.446;-1.930;2024-02-21T00:35:13;100302.418;;;;
44734;BME280;30462;52.446;-1.930;2024-02-21T00:36:14;100302.6836;;;;
44734;BME280;30462;52.446;-1.930;2024-02-21T00:37:14;100304.6719;;;;
44734;BME280;30462;52.446;-1.930;2024-02-21T00:38:14;100305.7266;;;;
44734;BME280;30462;52.446;-1.930;2024-02-21T00:39:13;100306.707;;;;
44734;BME280;30462;52.446;-1.930;2024-02-21T00:40:14;100308.6758;;;;
44734;BME280;30462;52.446;-1.930;2024-02-21T00:41:14;100310.6953;;;;
44734;BME280;30462;52.446;-1.930;2024-02-21T00:42:14;100306.1484;;;;
44734;BME280;30462;52.446;-1.930;2024-02-21T00:43:13;100302.4688;;;;
44734;BME280;30462;52.446;-1.930;2024-02-21T00:44:14;100304.6133;;;;
44734;BME280;30462;52.446;-1.930;2024-02-21T00:45:14;100300.7852;;;;
44734;BME280;30462;52.446;-1.930;2024-02-21T00:46:14;100301.4492;;;;
44734;BME280;30462;52.446;-1.930;2024-02-21T00:47:14;100302.1172;;;;
44734;BME280;30462;52.446;-1.930;2024-02-21T00:48:13;100300.418;;;;
44734;BME280;30462;52.446;-1.930;2024-02-21T00:49:14;100298.6875;;;;
44734;BME280;30462;52.446;-1.930;2024-02-21T00:50:14;100299.8008;;;;
44734;BME280;30462;52.446;-1.930;2024-02-21T00:51:14;100294.9766;;;;
44734;BME280;30462;52.446;-1.930;2024-02-21T00:52:14;100294.8477;;;;
44734;BME280;30462;52.446;-1.930;2024-02-21T00:53:14;100288.5703;;;;
44734;BME280;30462;52.446;-1.930;2024-02-21T00:54:14;100288.5156;;;;
44734;BME280;30462;52.446;-1.930;2024-02-21T00:55:13;100282.6055;;;;
44734;BME280;30462;52.446;-1.930;2024-02-21T00:56:14;100276.1992;;;;
44734;BME280;30462;52.446;-1.930;2024-02-21T00:57:14;100280.2266;;;;
44734;BME280;30462;52.446;-1.930;2024-02-21T00:58:14;100274.7773;;;;
44734;BME280;30462;52.446;-1.930;2024-02-21T00:59:14;100274.8633;;;;
44734;BME280;30462;52.446;-1.930;2024-02-21T01:00:14;100276.6758;;;;
44734;BME280;30462;52.446;-1.930;2024-02-21T01:02:14;100270.0508;;;;
44734;BME280;30462;52.446;-1.930;2024-02-21T01:03:13;100270.9727;;;;
44734;BME280;30462;52.446;-1.930;2024-02-21T01:04:14;100263.457;;;;
44734;BME280;30462;52.446;-1.930;2024-02-21T01:05:14;100262.1484;;;;
44734;BME280;30462;52.446;-1.930;2024-02-21T01:06:14;100258.4688;;;;
44734;BME280;30462;52.446;-1.930;2024-02-21T01:07:13;100253.8906;;;;
44734;BME280;30462;52.446;-1.930;2024-02-21T01:08:14;100249.5703;;;;
44734;BME280;30462;52.446;-1.930;2024-02-21T01:09:14;100251.5391;;;;
44734;BME280;30462;52.446;-1.930;2024-02-21T01:10:14;100249.2422;;;;
44734;BME280;30462;52.446;-1.930;2024-02-21T01:11:14;100244.8477;;;;
44734;BME280;30462;52.446;-1.930;2024-02-21T01:12:14;100239.8359;;;;
44734;BME280;30462;52.446;-1.930;2024-02-21T01:13:14;100238.9805;;;;
44734;BME280;30462;52.446;-1.930;2024-02-21T01:14:14;100230.543;;;;
44734;BME280;30462;52.446;-1.930;2024-02-21T01:15:13;100228.1641;;;;
44734;BME280;30462;52.446;-1.930;2024-02-21T01:16:13;100222.6836;;;;
44734;BME280;30462;52.446;-1.930;2024-02-21T01:17:14;100218.168;;;;
44734;BME280;30462;52.446;-1.930;2024-02-21T01:18:13;100219.3242;;;;
44734;BME280;30462;52.446;-1.930;2024-02-21T01:19:14;100210.2773;;;;
44734;BME280;30462;52.446;-1.930;2024-02-21T01:20:13;100204.4375;;;;
44734;BME280;30462;52.446;-1.930;2024-02-21T01:21:13;100203.9219;;;;
44734;BME280;30462;52.446;-1.930;2024-02-21T01:22:14;100202.5234;;;;
44734;BME280;30462;52.446;-1.930;2024-02-21T01:23:14;100201.5039;;;;
44734;BME280;30462;52.446;-1.930;2024-02-21T01:24:14;100205.2344;;;;
44734;BME280;30462;52.446;-1.930;2024-02-21T01:25:14;100202.6602;;;;
44734;BME280;30462;52.446;-1.930;2024-02-21T01:26:14;100196.3555;;;;
44734;BME280;30462;52.446;-1.930;2024-02-21T01:27:14;100191.6641;;;;
44734;BME280;30462;52.446;-1.930;2024-02-21T01:28:13;100200.4766;;;;
44734;BME280;30462;52.446;-1.930;2024-02-21T01:29:14;100192.8711;;;;
44734;BME280;30462;52.446;-1.930;2024-02-21T01:30:14;100193.3594;;;;
44734;BME280;30462;52.446;-1.930;2024-02-21T01:31:14;100191.0469;;;;
44734;BME280;30462;52.446;-1.930;2024-02-21T01:32:14;100189.8398;;;;
44734;BME280;30462;52.446;-1.930;2024-02-21T01:33:14;100187.5352;;;;
44734;BME280;30462;52.446;-1.930;2024-02-21T01:34:14;100185.8477;;;;
44734;BME280;30462;52.446;-1.930;2024-02-21T01:35:14;100182.5;;;;
44734;BME280;30462;52.446;-1.930;2024-02-21T01:36:14;100178.8242;;;;
44734;BME280;30462;52.446;-1.930;2024-02-21T01:37:13;100171.5586;;;;
44734;BME280;30462;52.446;-1.930;2024-02-21T01:38:14;100174.5195;;;;
44734;BME280;30462;52.446;-1.930;2024-02-21T01:39:13;100174.418;;;;
44734;BME280;30462;52.446;-1.930;2024-02-21T01:40:14;100170.6406;;;;
44734;BME280;30462;52.446;-1.930;2024-02-21T01:41:14;100164.8789;;;;
44734;BME280;30462;52.446;-1.930;2024-02-21T01:42:14;100165.3789;;;;
44734;BME280;30462;52.446;-1.930;2024-02-21T01:43:19;100165.3789;;;;
44734;BME280;30462;52.446;-1.930;2024-02-21T01:44:14;100155.3047;;;;
44734;BME280;30462;52.446;-1.930;2024-02-21T01:45:14;100151.6641;;;;
44734;BME280;30462;52.446;-1.930;2024-02-21T01:46:14;100153.7891;;;;
44734;BME280;30462;52.446;-1.930;2024-02-21T01:47:14;100147.5195;;;;
44734;BME280;30462;52.446;-1.930;2024-02-21T01:48:14;100150.6406;;;;
44734;BME280;30462;52.446;-1.930;2024-02-21T01:49:14;100152.1875;;;;
44734;BME280;30462;52.446;-1.930;2024-02-21T01:50:13;100144.1445;;;;
44734;BME280;30462;52.446;-1.930;2024-02-21T01:51:14;100147.4375;;;;
44734;BME280;30462;52.446;-1.930;2024-02-21T01:52:14;100143.082;;;;
44734;BME280;30462;52.446;-1.930;2024-02-21T01:53:14;100139.4219;;;;
44734;BME280;30462;52.446;-1.930;2024-02-21T01:54:14;100128.793;;;;
44734;BME280;30462;52.446;-1.930;2024-02-21T01:55:14;100131.9375;;;;
44734;BME280;30462;52.446;-1.930;2024-02-21T01:56:14;100129.7031;;;;
44734;BME280;30462;52.446;-1.930;2024-02-21T01:57:14;100137.6875;;;;
44734;BME280;30462;52.446;-1.930;2024-02-21T01:58:14;100131.4453;;;;
44734;BME280;30462;52.446;-1.930;2024-02-21T01:59:14;100129.1016;;;;
44734;BME280;30462;52.446;-1.930;2024-02-21T02:00:14;100127.1914;;;;
44734;BME280;30462;52.446;-1.930;2024-02-21T02:01:14;100129.3086;;;;
44734;BME280;30462;52.446;-1.930;2024-02-21T02:02:14;100126.2422;;;;
44734;BME280;30462;52.446;-1.930;2024-02-21T02:03:14;100130.3945;;;;
44734;BME280;30462;52.446;-1.930;2024-02-21T02:04:13;100129.4336;;;;
44734;BME280;30462;52.446;-1.930;2024-02-21T02:05:14;100133.2695;;;;
44734;BME280;30462;52.446;-1.930;2024-02-21T02:06:13;100132.6602;;;;
44734;BME280;30462;52.446;-1.930;2024-02-21T02:07:14;100132.2383;;;;
44734;BME280;30462;52.446;-1.930;2024-02-21T02:08:14;100131.1211;;;;
44734;BME280;30462;52.446;-1.930;2024-02-21T02:09:14;100132.875;;;;
44734;BME280;30462;52.446;-1.930;2024-02-21T02:10:14;100135.4766;;;;
44734;BME280;30462;52.446;-1.930;2024-02-21T02:11:14;100134.6953;;;;
44734;BME280;30462;52.446;-1.930;2024-02-21T02:12:14;100131.3359;;;;
44734;BME280;30462;52.446;-1.930;2024-02-21T02:13:13;100127.2617;;;;
44734;BME280;30462;52.446;-1.930;2024-02-21T02:14:14;100131.0469;;;;
44734;BME280;30462;52.446;-1.930;2024-02-21T02:15:14;100132.6328;;;;
44734;BME280;30462;52.446;-1.930;2024-02-21T02:16:14;100131.5781;;;;
44734;BME280;30462;52.446;-1.930;2024-02-21T02:17:14;100126.0742;;;;
44734;BME280;30462;52.446;-1.930;2024-02-21T02:18:14;100121.7344;;;;
44734;BME280;30462;52.446;-1.930;2024-02-21T02:19:13;100123.5586;;;;
44734;BME280;30462;52.446;-1.930;2024-02-21T02:20:14;100112.0352;;;;
44734;BME280;30462;52.446;-1.930;2024-02-21T02:21:21;100113.2969;;;;
44734;BME280;30462;52.446;-1.930;2024-02-21T02:22:15;100109.4609;;;;
44734;BME280;30462;52.446;-1.930;2024-02-21T02:24:14;100111.0898;;;;
44734;BME280;30462;52.446;-1.930;2024-02-21T02:25:14;100105.8203;;;;
44734;BME280;30462;52.446;-1.930;2024-02-21T02:26:13;100100.1367;;;;
44734;BME280;30462;52.446;-1.930;2024-02-21T02:27:14;100096.2305;;;;
44734;BME280;30462;52.446;-1.930;2024-02-21T02:28:14;100094.5352;;;;
44734;BME280;30462;52.446;-1.930;2024-02-21T02:29:13;100091.9102;;;;
44734;BME280;30462;52.446;-1.930;2024-02-21T02:30:14;100083.9063;;;;
44734;BME280;30462;52.446;-1.930;2024-02-21T02:31:14;100082.5586;;;;
44734;BME280;30462;52.446;-1.930;2024-02-21T02:32:14;100077.9922;;;;
44734;BME280;30462;52.446;-1.930;2024-02-21T02:33:14;100072.0352;;;;
44734;BME280;30462;52.446;-1.930;2024-02-21T02:34:14;100066.3711;;;;
44734;BME280;30462;52.446;-1.930;2024-02-21T02:35:14;100063.3438;;;;
44734;BME280;30462;52.446;-1.930;2024-02-21T02:36:14;100056.9219;;;;
44734;BME280;30462;52.446;-1.930;2024-02-21T02:37:14;100053.9375;;;;
44734;BME280;30462;52.446;-1.930;2024-02-21T02:38:14;100048.4531;;;;
44734;BME280;30462;52.446;-1.930;2024-02-21T02:39:13;100052.2344;;;;
44734;BME280;30462;52.446;-1.930;2024-02-21T02:40:14;100047.7773;;;;
44734;BME280;30462;52.446;-1.930;2024-02-21T02:41:14;100046.9258;;;;
44734;BME280;30462;52.446;-1.930;2024-02-21T02:42:14;100043.7891;;;;
44734;BME280;30462;52.446;-1.930;2024-02-21T02:43:14;100041.2656;;;;
44734;BME280;30462;52.446;-1.930;2024-02-21T02:44:14;100036.3086;;;;
44734;BME280;30462;52.446;-1.930;2024-02-21T02:45:14;100031.8594;;;;
44734;BME280;30462;52.446;-1.930;2024-02-21T02:46:14;100030.8633;;;;
44734;BME280;30462;52.446;-1.930;2024-02-21T02:47:13;100025.5352;;;;
44734;BME280;30462;52.446;-1.930;2024-02-21T02:48:14;100021.9883;;;;
44734;BME280;30462;52.446;-1.930;2024-02-21T02:49:14;100022.5547;;;;
44734;BME280;30462;52.446;-1.930;2024-02-21T02:50:14;100010.7656;;;;
44734;BME280;30462;52.446;-1.930;2024-02-21T02:51:14;100013.3164;;;;
44734;BME280;30462;52.446;-1.930;2024-02-21T02:52:13;100007.8281;;;;
44734;BME280;30462;52.446;-1.930;2024-02-21T02:53:14;100006.3203;;;;
44734;BME280;30462;52.446;-1.930;2024-02-21T02:54:14;100004.3945;;;;
44734;BME280;30462;52.446;-1.930;2024-02-21T02:55:14;100003.0508;;;;
44734;BME280;30462;52.446;-1.930;2024-02-21T02:56:14;99995.55859;;;;
44734;BME280;30462;52.446;-1.930;2024-02-21T02:57:14;99990.35938;;;;
44734;BME280;30462;52.446;-1.930;2024-02-21T02:58:14;99991.32031;;;;
44734;BME280;30462;52.446;-1.930;2024-02-21T02:59:14;99990.77734;;;;
44734;BME280;30462;52.446;-1.930;2024-02-21T03:00:14;99987.82422;;;;
44734;BME280;30462;52.446;-1.930;2024-02-21T03:01:14;99990.11328;;;;
44734;BME280;30462;52.446;-1.930;2024-02-21T03:02:14;99982.3125;;;;
44734;BME280;30462;52.446;-1.930;2024-02-21T03:03:14;99980.21484;;;;
44734;BME280;30462;52.446;-1.930;2024-02-21T03:04:14;99977.28125;;;;
44734;BME280;30462;52.446;-1.930;2024-02-21T03:05:14;99970.25391;;;;
44734;BME280;30462;52.446;-1.930;2024-02-21T03:06:14;99968.41016;;;;
44734;BME280;30462;52.446;-1.930;2024-02-21T03:07:14;99969.16797;;;;
44734;BME280;30462;52.446;-1.930;2024-02-21T03:08:14;99963.5;;;;
44734;BME280;30462;52.446;-1.930;2024-02-21T03:09:14;99961.74609;;;;
44734;BME280;30462;52.446;-1.930;2024-02-21T03:10:14;99959.23047;;;;
44734;BME280;30462;52.446;-1.930;2024-02-21T03:11:14;99954.6875;;;;
44734;BME280;30462;52.446;-1.930;2024-02-21T03:12:14;99959.55859;;;;
44734;BME280;30462;52.446;-1.930;2024-02-21T03:13:14;99959.72656;;;;
44734;BME280;30462;52.446;-1.930;2024-02-21T03:14:13;99952.99609;;;;
44734;BME280;30462;52.446;-1.930;2024-02-21T03:15:14;99948.92578;;;;
44734;BME280;30462;52.446;-1.930;2024-02-21T03:17:14;99941.96875;;;;
44734;BME280;30462;52.446;-1.930;2024-02-21T03:18:14;99933.50391;;;;
44734;BME280;30462;52.446;-1.930;2024-02-21T03:19:14;99936.55859;;;;
44734;BME280;30462;52.446;-1.930;2024-02-21T03:20:13;99936.02344;;;;
44734;BME280;30462;52.446;-1.930;2024-02-21T03:21:14;99927.77734;;;;
44734;BME280;30462;52.446;-1.930;2024-02-21T03:22:14;99931.32813;;;;
44734;BME280;30462;52.446;-1.930;2024-02-21T03:23:14;99930.57031;;;;
44734;BME280;30462;52.446;-1.930;2024-02-21T03:24:14;99924.55078;;;;
44734;BME280;30462;52.446;-1.930;2024-02-21T03:25:13;99915.4375;;;;
44734;BME280;30462;52.446;-1.930;2024-02-21T03:26:14;99914.94141;;;;
44734;BME280;30462;52.446;-1.930;2024-02-21T03:27:14;99910.78906;;;;
44734;BME280;30462;52.446;-1.930;2024-02-21T03:28:14;99907.51953;;;;
44734;BME280;30462;52.446;-1.930;2024-02-21T03:29:14;99904.00391;;;;
44734;BME280;30462;52.446;-1.930;2024-02-21T03:30:14;99899.66406;;;;
44734;BME280;30462;52.446;-1.930;2024-02-21T03:31:14;99898.16797;;;;
44734;BME280;30462;52.446;-1.930;2024-02-21T03:32:14;99893.95313;;;;
44734;BME280;30462;52.446;-1.930;2024-02-21T03:33:13;99892.94141;;;;
44734;BME280;30462;52.446;-1.930;2024-02-21T03:34:14;99887.53906;;;;
44734;BME280;30462;52.446;-1.930;2024-02-21T03:35:14;99888.34375;;;;
44734;BME280;30462;52.446;-1.930;2024-02-21T03:36:14;99882.09375;;;;
44734;BME280;30462;52.446;-1.930;2024-02-21T03:37:14;99888.02344;;;;
44734;BME280;30462;52.446;-1.930;2024-02-21T03:38:14;99879.08594;;;;
44734;BME280;30462;52.446;-1.930;2024-02-21T03:39:14;99878.10547;;;;
44734;BME280;30462;52.446;-1.930;2024-02-21T03:40:13;99877.57031;;;;
44734;BME280;30462;52.446;-1.930;2024-02-21T03:41:14;99875.71875;;;;
44734;BME280;30462;52.446;-1.930;2024-02-21T03:42:14;99876.8125;;;;
44734;BME280;30462;52.446;-1.930;2024-02-21T03:43:14;99867.84766;;;;
44734;BME280;30462;52.446;-1.930;2024-02-21T03:44:14;99866.625;;;;
44734;BME280;30462;52.446;-1.930;2024-02-21T03:45:14;99867.92188;;;;
44734;BME280;30462;52.446;-1.930;2024-02-21T03:46:14;99870.04688;;;;
44734;BME280;30462;52.446;-1.930;2024-02-21T03:47:14;99859.27344;;;;
44734;BME280;30462;52.446;-1.930;2024-02-21T03:48:13;99851.85156;;;;
44734;BME280;30462;52.446;-1.930;2024-02-21T03:49:14;99853.70703;;;;
44734;BME280;30462;52.446;-1.930;2024-02-21T03:50:14;99849.17578;;;;
44734;BME280;30462;52.446;-1.930;2024-02-21T03:51:14;99845.08984;;;;
44734;BME280;30462;52.446;-1.930;2024-02-21T03:52:14;99832.64063;;;;
44734;BME280;30462;52.446;-1.930;2024-02-21T03:53:14;99833.78125;;;;
44734;BME280;30462;52.446;-1.930;2024-02-21T03:54:14;99835.80469;;;;
44734;BME280;30462;52.446;-1.930;2024-02-21T03:55:14;99835.76172;;;;
44734;BME280;30462;52.446;-1.930;2024-02-21T03:56:13;99832.625;;;;
44734;BME280;30462;52.446;-1.930;2024-02-21T03:57:13;99834.32031;;;;
44734;BME280;30462;52.446;-1.930;2024-02-21T03:58:14;99835.34766;;;;
44734;BME280;30462;52.446;-1.930;2024-02-21T03:59:14;99829.6875;;;;
44734;BME280;30462;52.446;-1.930;2024-02-21T04:00:14;99826.375;;;;
44734;BME280;30462;52.446;-1.930;2024-02-21T04:01:14;99831.83984;;;;
44734;BME280;30462;52.446;-1.930;2024-02-21T04:02:13;99831.23828;;;;
44734;BME280;30462;52.446;-1.930;2024-02-21T04:03:14;99817.86719;;;;
44734;BME280;30462;52.446;-1.930;2024-02-21T04:04:14;99816.87891;;;;
44734;BME280;30462;52.446;-1.930;2024-02-21T04:05:15;99813.97656;;;;
44734;BME280;30462;52.446;-1.930;2024-02-21T04:06:14;99808.02734;;;;
44734;BME280;30462;52.446;-1.930;2024-02-21T04:07:14;99809.67188;;;;
44734;BME280;30462;52.446;-1.930;2024-02-21T04:08:14;99801.64063;;;;
44734;BME280;30462;52.446;-1.930;2024-02-21T04:09:13;99797.71484;;;;
44734;BME280;30462;52.446;-1.930;2024-02-21T04:10:14;99801.22266;;;;
44734;BME280;30462;52.446;-1.930;2024-02-21T04:11:14;99786.75391;;;;
44734;BME280;30462;52.446;-1.930;2024-02-21T04:12:14;99786.05078;;;;
44734;BME280;30462;52.446;-1.930;2024-02-21T04:13:14;99784.03125;;;;
44734;BME280;30462;52.446;-1.930;2024-02-21T04:14:14;99775.57813;;;;
44734;BME280;30462;52.446;-1.930;2024-02-21T04:15:14;99776.23438;;;;
44734;BME280;30462;52.446;-1.930;2024-02-21T04:16:14;99781.35547;;;;
44734;BME280;30462;52.446;-1.930;2024-02-21T04:17:13;99777.30859;;;;
44734;BME280;30462;52.446;-1.930;2024-02-21T04:18:14;99776.44141;;;;
44734;BME280;30462;52.446;-1.930;2024-02-21T04:19:14;99770.37891;;;;
44734;BME280;30462;52.446;-1.930;2024-02-21T04:20:14;99769.82813;;;;
44734;BME280;30462;52.446;-1.930;2024-02-21T04:21:14;99771.94922;;;;
44734;BME280;30462;52.446;-1.930;2024-02-21T04:22:14;99768.29688;;;;
44734;BME280;30462;52.446;-1.930;2024-02-21T04:23:14;99761.3125;;;;
44734;BME280;30462;52.446;-1.930;2024-02-21T04:24:14;99765.33203;;;;
44734;BME280;30462;52.446;-1.930;2024-02-21T04:25:14;99765.79297;;;;
44734;BME280;30462;52.446;-1.930;2024-02-21T04:26:14;99763.98047;;;;
44734;BME280;30462;52.446;-1.930;2024-02-21T04:27:14;99758.90625;;;;
44734;BME280;30462;52.446;-1.930;2024-02-21T04:28:14;99763.64844;;;;
44734;BME280;30462;52.446;-1.930;2024-02-21T04:29:14;99762.87891;;;;
44734;BME280;30462;52.446;-1.930;2024-02-21T04:30:14;99775.36328;;;;
44734;BME280;30462;52.446;-1.930;2024-02-21T04:31:14;99760.29688;;;;
44734;BME280;30462;52.446;-1.930;2024-02-21T04:32:13;99772.08984;;;;
44734;BME280;30462;52.446;-1.930;2024-02-21T04:33:14;99770.07422;;;;
44734;BME280;30462;52.446;-1.930;2024-02-21T04:34:14;99768.43359;;;;
44734;BME280;30462;52.446;-1.930;2024-02-21T04:35:14;99787.8125;;;;
44734;BME280;30462;52.446;-1.930;2024-02-21T04:36:13;99761.56641;;;;
44734;BME280;30462;52.446;-1.930;2024-02-21T04:37:14;99763.06641;;;;
44734;BME280;30462;52.446;-1.930;2024-02-21T04:38:14;99763.80469;;;;
44734;BME280;30462;52.446;-1.930;2024-02-21T04:39:14;99752.69531;;;;
44734;BME280;30462;52.446;-1.930;2024-02-21T04:40:14;99748.30078;;;;
44734;BME280;30462;52.446;-1.930;2024-02-21T04:41:13;99744.63281;;;;
44734;BME280;30462;52.446;-1.930;2024-02-21T04:42:14;99734.55469;;;;
44734;BME280;30462;52.446;-1.930;2024-02-21T04:43:14;99739.16797;;;;
44734;BME280;30462;52.446;-1.930;2024-02-21T04:44:14;99736;;;;
44734;BME280;30462;52.446;-1.930;2024-02-21T04:45:14;99736.66406;;;;
44734;BME280;30462;52.446;-1.930;2024-02-21T04:46:14;99735.26563;;;;
44734;BME280;30462;52.446;-1.930;2024-02-21T04:47:14;99725.80859;;;;
44734;BME280;30462;52.446;-1.930;2024-02-21T04:48:14;99718.33984;;;;
44734;BME280;30462;52.446;-1.930;2024-02-21T04:49:14;99721.57031;;;;
44734;BME280;30462;52.446;-1.930;2024-02-21T04:50:14;99701.07813;;;;
44734;BME280;30462;52.446;-1.930;2024-02-21T04:51:14;99712.63672;;;;
44734;BME280;30462;52.446;-1.930;2024-02-21T04:52:14;99709.78906;;;;
44734;BME280;30462;52.446;-1.930;2024-02-21T04:53:14;99704.24219;;;;
44734;BME280;30462;52.446;-1.930;2024-02-21T04:54:14;99707.45703;;;;
44734;BME280;30462;52.446;-1.930;2024-02-21T04:55:14;99684.59375;;;;
44734;BME280;30462;52.446;-1.930;2024-02-21T04:56:13;99692.98828;;;;
44734;BME280;30462;52.446;-1.930;2024-02-21T04:57:14;99686.91797;;;;
44734;BME280;30462;52.446;-1.930;2024-02-21T04:58:14;99683.73438;;;;
44734;BME280;30462;52.446;-1.930;2024-02-21T04:59:14;99686.94531;;;;
44734;BME280;30462;52.446;-1.930;2024-02-21T05:00:14;99695.97266;;;;
44734;BME280;30462;52.446;-1.930;2024-02-21T05:01:13;99680.00781;;;;
44734;BME280;30462;52.446;-1.930;2024-02-21T05:02:15;99682.23828;;;;
44734;BME280;30462;52.446;-1.930;2024-02-21T05:03:14;99675.82422;;;;
44734;BME280;30462;52.446;-1.930;2024-02-21T05:04:14;99669.62109;;;;
44734;BME280;30462;52.446;-1.930;2024-02-21T05:05:14;99674.09375;;;;
44734;BME280;30462;52.446;-1.930;2024-02-21T05:06:14;99665.55859;;;;
44734;BME280;30462;52.446;-1.930;2024-02-21T05:07:14;99665.05078;;;;
44734;BME280;30462;52.446;-1.930;2024-02-21T05:08:14;99651.22266;;;;
44734;BME280;30462;52.446;-1.930;2024-02-21T05:09:13;99663.83203;;;;
44734;BME280;30462;52.446;-1.930;2024-02-21T05:10:14;99665.33203;;;;
44734;BME280;30462;52.446;-1.930;2024-02-21T05:11:14;99657.65234;;;;
44734;BME280;30462;52.446;-1.930;2024-02-21T05:12:14;99659.4375;;;;
44734;BME280;30462;52.446;-1.930;2024-02-21T05:13:14;99654.58594;;;;
44734;BME280;30462;52.446;-1.930;2024-02-21T05:14:14;99645.69922;;;;
44734;BME280;30462;52.446;-1.930;2024-02-21T05:15:14;99652.53125;;;;
44734;BME280;30462;52.446;-1.930;2024-02-21T05:16:14;99648.72656;;;;
44734;BME280;30462;52.446;-1.930;2024-02-21T05:17:14;99638.44141;;;;
44734;BME280;30462;52.446;-1.930;2024-02-21T05:18:14;99632.73438;;;;
44734;BME280;30462;52.446;-1.930;2024-02-21T05:19:14;99626.38281;;;;
44734;BME280;30462;52.446;-1.930;2024-02-21T05:20:14;99621.64844;;;;
44734;BME280;30462;52.446;-1.930;2024-02-21T05:21:14;99624.4375;;;;
44734;BME280;30462;52.446;-1.930;2024-02-21T05:22:14;99630.65234;;;;
44734;BME280;30462;52.446;-1.930;2024-02-21T05:23:14;99621.03516;;;;
44734;BME280;30462;52.446;-1.930;2024-02-21T05:24:14;99621.73047;;;;
44734;BME280;30462;52.446;-1.930;2024-02-21T05:25:14;99607.74219;;;;
44734;BME280;30462;52.446;-1.930;2024-02-21T05:27:14;99614.41797;;;;
44734;BME280;30462;52.446;-1.930;2024-02-21T05:28:14;99609.26953;;;;
44734;BME280;30462;52.446;-1.930;2024-02-21T05:29:14;99600.25391;;;;
44734;BME280;30462;52.446;-1.930;2024-02-21T05:30:13;99598.12109;;;;
44734;BME280;30462;52.446;-1.930;2024-02-21T05:31:14;99603.6875;;;;
44734;BME280;30462;52.446;-1.930;2024-02-21T05:32:14;99604.5;;;;
44734;BME280;30462;52.446;-1.930;2024-02-21T05:33:14;99597.15234;;;;
44734;BME280;30462;52.446;-1.930;2024-02-21T05:34:14;99599.07422;;;;
44734;BME280;30462;52.446;-1.930;2024-02-21T05:35:14;99604.32031;;;;
44734;BME280;30462;52.446;-1.930;2024-02-21T05:36:14;99596.10938;;;;
44734;BME280;30462;52.446;-1.930;2024-02-21T05:37:14;99600.35547;;;;
44734;BME280;30462;52.446;-1.930;2024-02-21T05:38:13;99587.45313;;;;
44734;BME280;30462;52.446;-1.930;2024-02-21T05:39:14;99587.20703;;;;
44734;BME280;30462;52.446;-1.930;2024-02-21T05:40:14;99586.87891;;;;
44734;BME280;30462;52.446;-1.930;2024-02-21T05:41:14;99581.54297;;;;
44734;BME280;30462;52.446;-1.930;2024-02-21T05:42:14;99573.32422;;;;
44734;BME280;30462;52.446;-1.930;2024-02-21T05:43:14;99573.07813;;;;
44734;BME280;30462;52.446;-1.930;2024-02-21T05:44:15;99570.21094;;;;
44734;BME280;30462;52.446;-1.930;2024-02-21T05:45:13;99563.66406;;;;
44734;BME280;30462;52.446;-1.930;2024-02-21T05:46:14;99555.39844;;;;
44734;BME280;30462;52.446;-1.930;2024-02-21T05:47:14;99559.31641;;;;
44734;BME280;30462;52.446;-1.930;2024-02-21T05:48:14;99550.90625;;;;
44734;BME280;30462;52.446;-1.930;2024-02-21T05:49:14;99548.03125;;;;